createdAt,value
2019-06-01T00:00:11.115Z,15.80
2019-06-01T00:02:33.158Z,15.80
2019-06-01T00:05:04.031Z,15.70
2019-06-01T00:07:34.325Z,15.60
2019-06-01T00:10:09.150Z,15.50
2019-06-01T00:12:39.407Z,15.50
2019-06-01T00:15:09.858Z,15.40
2019-06-01T00:17:41.754Z,15.40
2019-06-01T00:20:12.248Z,15.40
2019-06-01T00:22:43.283Z,15.40
2019-06-01T00:25:13.654Z,15.30
2019-06-01T00:27:44.704Z,15.20
2019-06-01T00:30:26.606Z,15.20
2019-06-01T00:32:47.327Z,15.20
2019-06-01T00:35:17.620Z,15.20
2019-06-01T00:37:47.922Z,15.20
2019-06-01T00:40:18.482Z,15.20
2019-06-01T00:42:48.754Z,15.10
2019-06-01T00:45:20.331Z,15.10
2019-06-01T00:47:50.908Z,15.00
2019-06-01T00:50:21.367Z,15.00
2019-06-01T00:52:51.673Z,15.00
2019-06-01T00:55:21.940Z,15.00
2019-06-01T00:57:53.870Z,15.10
2019-06-01T01:00:24.234Z,15.10
2019-06-01T01:02:54.504Z,15.10
2019-06-01T01:05:24.806Z,15.20
2019-06-01T01:07:55.176Z,15.20
2019-06-01T01:10:25.444Z,15.30
2019-06-01T01:13:09.519Z,15.40
2019-06-01T01:15:39.826Z,15.30
2019-06-01T01:18:11.765Z,15.20
2019-06-01T01:20:42.033Z,15.20
2019-06-01T01:23:12.368Z,15.10
2019-06-01T01:25:42.635Z,15.10
2019-06-01T01:28:12.941Z,15.10
2019-06-01T01:30:59.985Z,15.10
2019-06-01T01:33:15.680Z,15.10
2019-06-01T01:35:45.961Z,15.20
2019-06-01T01:38:16.242Z,15.20
2019-06-01T01:40:46.503Z,15.10
2019-06-01T01:43:16.804Z,15.00
2019-06-01T01:45:47.083Z,15.00
2019-06-01T01:48:17.390Z,15.00
2019-06-01T01:50:47.637Z,14.90
2019-06-01T01:53:19.312Z,14.90
2019-06-01T01:55:50.855Z,14.90
2019-06-01T01:58:21.424Z,14.90
2019-06-01T02:00:53.496Z,14.90
2019-06-01T02:03:23.787Z,14.80
2019-06-01T02:05:54.925Z,14.80
2019-06-01T02:08:25.233Z,14.80
2019-06-01T02:10:55.560Z,14.80
2019-06-01T02:13:25.842Z,14.70
2019-06-01T02:15:56.267Z,14.70
2019-06-01T02:18:26.560Z,14.70
2019-06-01T02:20:56.842Z,14.60
2019-06-01T02:23:27.141Z,14.60
2019-06-01T02:25:57.435Z,14.50
2019-06-01T02:28:27.718Z,14.50
2019-06-01T02:30:58.025Z,14.50
2019-06-01T02:33:28.676Z,14.40
2019-06-01T02:36:00.630Z,14.40
2019-06-01T02:38:30.908Z,14.40
2019-06-01T02:41:02.722Z,14.30
2019-06-01T02:43:33.187Z,14.30
2019-06-01T02:46:06.592Z,14.30
2019-06-01T02:48:36.525Z,14.30
2019-06-01T02:51:06.819Z,14.30
2019-06-01T02:53:37.081Z,14.30
2019-06-01T02:56:07.354Z,14.20
2019-06-01T02:58:37.645Z,14.20
2019-06-01T03:01:32.875Z,14.20
2019-06-01T03:04:07.776Z,14.20
2019-06-01T03:06:40.938Z,14.20
2019-06-01T03:09:11.909Z,14.20
2019-06-01T03:11:42.571Z,14.20
2019-06-01T03:14:13.676Z,14.20
2019-06-01T03:16:44.214Z,14.20
2019-06-01T03:19:15.516Z,14.20
2019-06-01T03:21:48.036Z,14.20
2019-06-01T03:24:18.349Z,14.20
2019-06-01T03:26:48.648Z,14.20
2019-06-01T03:29:20.167Z,14.30
2019-06-01T03:31:50.460Z,14.30
2019-06-01T03:34:20.724Z,14.40
2019-06-01T03:36:51.000Z,14.40
2019-06-01T03:39:21.292Z,14.50
2019-06-01T03:41:51.598Z,14.50
2019-06-01T03:44:21.882Z,14.60
2019-06-01T03:46:52.152Z,14.60
2019-06-01T03:49:22.442Z,14.70
2019-06-01T03:51:52.789Z,14.80
2019-06-01T03:54:23.101Z,14.80
2019-06-01T03:56:53.360Z,14.90
2019-06-01T03:59:24.033Z,14.90
2019-06-01T04:01:54.351Z,15.10
2019-06-01T04:04:24.597Z,15.10
2019-06-01T04:06:55.027Z,15.20
2019-06-01T04:09:25.433Z,15.40
2019-06-01T04:11:55.736Z,15.40
2019-06-01T04:14:26.009Z,15.50
2019-06-01T04:16:56.308Z,15.70
2019-06-01T04:19:26.565Z,15.70
2019-06-01T04:21:56.863Z,15.80
2019-06-01T04:24:27.120Z,15.90
2019-06-01T04:26:57.418Z,15.90
2019-06-01T04:29:27.691Z,16.00
2019-06-01T04:31:57.960Z,16.00
2019-06-01T04:34:28.273Z,16.10
2019-06-01T04:36:58.533Z,16.20
2019-06-01T04:39:28.837Z,16.30
2019-06-01T04:41:59.104Z,16.40
2019-06-01T04:44:29.375Z,16.60
2019-06-01T04:46:59.678Z,16.50
2019-06-01T04:49:29.980Z,16.70
2019-06-01T04:52:00.288Z,16.80
2019-06-01T04:54:30.550Z,16.80
2019-06-01T04:57:00.858Z,16.80
2019-06-01T04:59:31.081Z,16.90
2019-06-01T05:02:01.391Z,17.00
2019-06-01T05:04:32.754Z,17.10
2019-06-01T05:07:03.068Z,17.30
2019-06-01T05:09:33.325Z,17.40
2019-06-01T05:12:03.604Z,17.60
2019-06-01T05:14:33.897Z,17.70
2019-06-01T05:17:04.196Z,17.70
2019-06-01T05:19:34.486Z,17.70
2019-06-01T05:22:04.757Z,18.00
2019-06-01T05:24:35.010Z,18.10
2019-06-01T05:27:05.314Z,18.30
2019-06-01T05:29:35.584Z,18.50
2019-06-01T05:32:05.956Z,18.70
2019-06-01T05:34:36.256Z,19.10
2019-06-01T05:37:08.401Z,19.40
2019-06-01T05:39:38.527Z,19.90
2019-06-01T05:42:08.946Z,20.10
2019-06-01T05:44:39.199Z,20.20
2019-06-01T05:47:10.046Z,20.30
2019-06-01T05:49:40.371Z,20.30
2019-06-01T05:52:10.636Z,20.30
2019-06-01T05:54:40.929Z,20.40
2019-06-01T05:57:11.186Z,20.60
2019-06-01T05:59:41.454Z,20.90
2019-06-01T06:02:11.718Z,20.90
2019-06-01T06:04:41.978Z,21.00
2019-06-01T06:07:12.810Z,21.00
2019-06-01T06:09:43.475Z,20.90
2019-06-01T06:12:15.284Z,21.00
2019-06-01T06:14:45.844Z,21.10
2019-06-01T06:17:18.070Z,21.20
2019-06-01T06:19:48.387Z,21.20
2019-06-01T06:22:18.643Z,21.10
2019-06-01T06:24:48.899Z,21.20
2019-06-01T06:27:19.162Z,21.20
2019-06-01T06:29:49.460Z,21.30
2019-06-01T06:32:19.785Z,21.30
2019-06-01T06:34:50.085Z,21.30
2019-06-01T06:37:20.339Z,21.10
2019-06-01T06:39:50.626Z,21.00
2019-06-01T06:42:20.909Z,21.10
2019-06-01T06:44:51.220Z,21.10
2019-06-01T06:47:21.496Z,21.10
2019-06-01T06:49:51.761Z,21.00
2019-06-01T06:52:22.041Z,21.00
2019-06-01T06:54:52.348Z,20.90
2019-06-01T06:57:22.580Z,20.90
2019-06-01T06:59:52.866Z,21.00
2019-06-01T07:02:23.158Z,21.00
2019-06-01T07:04:53.461Z,21.00
2019-06-01T07:07:23.821Z,21.00
2019-06-01T07:09:54.058Z,21.00
2019-06-01T07:12:25.323Z,21.20
2019-06-01T07:14:55.892Z,21.30
2019-06-01T07:17:27.612Z,21.20
2019-06-01T07:19:58.014Z,21.10
2019-06-01T07:22:28.297Z,21.20
2019-06-01T07:24:58.554Z,21.20
2019-06-01T07:27:28.856Z,21.10
2019-06-01T07:29:59.129Z,21.00
2019-06-01T07:32:29.440Z,21.00
2019-06-01T07:35:01.226Z,21.00
2019-06-01T07:37:32.735Z,20.90
2019-06-01T07:40:03.490Z,20.90
2019-06-01T07:42:33.749Z,20.90
2019-06-01T07:45:05.444Z,21.00
2019-06-01T07:47:35.756Z,21.00
2019-06-01T07:50:08.708Z,21.10
2019-06-01T07:52:39.011Z,21.20
2019-06-01T07:55:09.439Z,21.30
2019-06-01T07:57:43.033Z,21.50
2019-06-01T08:00:11.951Z,21.60
2019-06-01T08:02:42.200Z,21.70
2019-06-01T08:05:12.510Z,21.90
2019-06-01T08:07:42.771Z,22.10
2019-06-01T08:10:13.064Z,22.20
2019-06-01T08:12:43.565Z,22.20
2019-06-01T08:15:13.879Z,22.30
2019-06-01T08:17:44.126Z,22.40
2019-06-01T08:20:14.416Z,22.30
2019-06-01T08:22:44.690Z,22.40
2019-06-01T08:25:14.952Z,22.40
2019-06-01T08:27:45.208Z,22.30
2019-06-01T08:30:15.657Z,22.40
2019-06-01T08:32:46.086Z,22.40
2019-06-01T08:35:16.318Z,22.40
2019-06-01T08:37:46.568Z,22.60
2019-06-01T08:40:16.909Z,22.70
2019-06-01T08:42:47.150Z,22.70
2019-06-01T08:45:19.081Z,22.70
2019-06-01T08:47:49.319Z,22.90
2019-06-01T08:50:19.624Z,23.00
2019-06-01T08:52:49.894Z,23.00
2019-06-01T08:55:20.172Z,23.20
2019-06-01T08:57:50.455Z,23.30
2019-06-01T09:00:20.706Z,23.40
2019-06-01T09:02:50.962Z,23.30
2019-06-01T09:05:26.192Z,23.40
2019-06-01T09:07:53.216Z,23.20
2019-06-01T09:10:25.115Z,23.00
2019-06-01T09:12:55.644Z,23.20
2019-06-01T09:15:27.443Z,23.40
2019-06-01T09:17:58.529Z,23.60
2019-06-01T09:20:34.004Z,23.80
2019-06-01T09:23:01.050Z,23.90
2019-06-01T09:25:31.759Z,24.00
2019-06-01T09:28:02.155Z,24.10
2019-06-01T09:30:32.404Z,24.30
2019-06-01T09:33:02.658Z,24.70
2019-06-01T09:35:51.389Z,25.10
2019-06-01T09:38:04.857Z,25.50
2019-06-01T09:40:35.199Z,25.80
2019-06-01T09:43:05.474Z,25.70
2019-06-01T09:45:36.313Z,25.50
2019-06-01T09:48:06.674Z,25.40
2019-06-01T09:50:37.755Z,25.60
2019-06-01T09:53:08.094Z,25.70
2019-06-01T09:55:38.515Z,25.50
2019-06-01T09:58:08.782Z,25.40
2019-06-01T10:00:43.048Z,25.30
2019-06-01T10:03:11.314Z,25.20
2019-06-01T10:05:41.561Z,25.00
2019-06-01T10:08:11.837Z,25.00
2019-06-01T10:10:42.360Z,24.90
2019-06-01T10:13:12.687Z,24.70
2019-06-01T10:15:43.066Z,24.60
2019-06-01T10:18:13.316Z,24.50
2019-06-01T10:20:43.853Z,24.50
2019-06-01T10:23:14.175Z,24.60
2019-06-01T10:25:44.412Z,24.60
2019-06-01T10:28:14.655Z,24.80
2019-06-01T10:30:44.933Z,25.10
2019-06-01T10:33:15.163Z,25.20
2019-06-01T10:35:45.413Z,25.10
2019-06-01T10:38:15.694Z,24.90
2019-06-01T10:40:45.946Z,24.50
2019-06-01T10:43:16.258Z,24.40
2019-06-01T10:45:46.536Z,24.50
2019-06-01T10:48:16.803Z,24.60
2019-06-01T10:50:47.389Z,24.70
2019-06-01T10:53:17.655Z,24.80
2019-06-01T10:55:48.287Z,25.00
2019-06-01T10:58:18.640Z,25.20
2019-06-01T11:00:51.098Z,25.20
2019-06-01T11:03:20.850Z,25.30
2019-06-01T11:05:51.097Z,25.30
2019-06-01T11:08:21.406Z,25.20
2019-06-01T11:10:51.649Z,25.10
2019-06-01T11:13:21.931Z,25.00
2019-06-01T11:15:52.220Z,24.90
2019-06-01T11:18:22.542Z,24.90
2019-06-01T11:20:52.751Z,24.80
2019-06-01T11:23:23.046Z,24.80
2019-06-01T11:25:53.323Z,24.80
2019-06-01T11:28:23.563Z,24.90
2019-06-01T11:30:53.847Z,25.00
2019-06-01T11:33:24.092Z,25.10
2019-06-01T11:35:54.637Z,25.30
2019-06-01T11:38:24.883Z,25.50
2019-06-01T11:40:55.125Z,25.50
2019-06-01T11:43:26.627Z,25.40
2019-06-01T11:45:56.834Z,25.30
2019-06-01T11:48:27.106Z,25.20
2019-06-01T11:50:58.071Z,25.10
2019-06-01T11:53:28.312Z,25.10
2019-06-01T11:55:58.601Z,25.20
2019-06-01T11:58:28.842Z,25.40
2019-06-01T12:01:00.296Z,25.50
2019-06-01T12:03:30.577Z,25.40
2019-06-01T12:06:00.811Z,25.40
2019-06-01T12:08:34.011Z,25.40
2019-06-01T12:11:03.072Z,25.30
2019-06-01T12:13:33.315Z,25.40
2019-06-01T12:16:03.581Z,25.40
2019-06-01T12:18:33.825Z,25.50
2019-06-01T12:21:04.666Z,25.50
2019-06-01T12:23:35.249Z,25.60
2019-06-01T12:26:05.497Z,25.60
2019-06-01T12:28:35.740Z,25.70
2019-06-01T12:31:06.560Z,25.70
2019-06-01T12:33:37.974Z,25.80
2019-06-01T12:36:08.421Z,25.80
2019-06-01T12:38:51.983Z,25.80
2019-06-01T12:41:22.802Z,25.80
2019-06-01T12:44:06.875Z,25.90
2019-06-01T12:46:39.828Z,26.00
2019-06-01T12:49:10.286Z,26.10
2019-06-01T12:51:40.735Z,26.30
2019-06-01T12:54:11.007Z,26.30
2019-06-01T12:56:42.687Z,26.30
2019-06-01T12:59:15.820Z,26.30
2019-06-01T13:01:47.208Z,26.50
2019-06-01T13:04:17.617Z,26.50
2019-06-01T13:06:51.074Z,26.50
2019-06-01T13:09:19.833Z,26.70
2019-06-01T13:11:51.405Z,26.90
2019-06-01T13:14:21.717Z,27.00
2019-06-01T13:17:06.325Z,27.10
2019-06-01T13:19:23.960Z,27.30
2019-06-01T13:21:54.208Z,27.30
2019-06-01T13:24:24.763Z,27.20
2019-06-01T13:26:55.007Z,27.10
2019-06-01T13:29:25.364Z,27.20
2019-06-01T13:31:55.654Z,27.30
2019-06-01T13:34:25.938Z,27.50
2019-06-01T13:36:56.217Z,27.90
2019-06-01T13:39:26.466Z,28.40
2019-06-01T13:41:56.742Z,30.00
2019-06-01T13:44:27.024Z,31.60
2019-06-01T13:46:57.304Z,32.40
2019-06-01T13:49:27.582Z,32.70
2019-06-01T13:51:57.846Z,33.60
2019-06-01T13:54:28.387Z,34.50
2019-06-01T13:56:58.726Z,34.90
2019-06-01T13:59:29.027Z,34.50
2019-06-01T14:01:59.325Z,35.30
2019-06-01T14:04:29.612Z,36.20
2019-06-01T14:06:59.882Z,36.90
2019-06-01T14:09:30.320Z,36.50
2019-06-01T14:12:00.582Z,37.20
2019-06-01T14:14:31.016Z,37.70
2019-06-01T14:17:01.301Z,37.90
2019-06-01T14:19:31.569Z,38.20
2019-06-01T14:22:02.020Z,38.80
2019-06-01T14:24:32.258Z,39.30
2019-06-01T14:27:02.548Z,39.90
2019-06-01T14:29:32.850Z,39.70
2019-06-01T14:32:03.259Z,40.20
2019-06-01T14:34:33.756Z,40.70
2019-06-01T14:37:04.122Z,40.90
2019-06-01T14:39:34.362Z,39.50
2019-06-01T14:42:04.643Z,39.70
2019-06-01T14:44:34.893Z,40.50
2019-06-01T14:47:06.253Z,40.70
2019-06-01T14:49:36.548Z,39.00
2019-06-01T14:52:06.809Z,38.00
2019-06-01T14:54:37.068Z,39.10
2019-06-01T14:57:07.360Z,39.40
2019-06-01T14:59:37.905Z,40.00
2019-06-01T15:02:08.159Z,40.50
2019-06-01T15:04:38.440Z,41.00
2019-06-01T15:07:08.738Z,39.80
2019-06-01T15:09:39.008Z,39.40
2019-06-01T15:12:09.281Z,40.00
2019-06-01T15:14:39.578Z,39.50
2019-06-01T15:17:10.564Z,39.50
2019-06-01T15:19:43.572Z,39.30
2019-06-01T15:22:13.847Z,38.00
2019-06-01T15:24:44.326Z,36.50
2019-06-01T15:27:14.671Z,37.50
2019-06-01T15:29:44.945Z,38.20
2019-06-01T15:32:16.456Z,37.50
2019-06-01T15:35:00.912Z,37.60
2019-06-01T15:37:34.626Z,37.50
2019-06-01T15:40:10.201Z,37.90
2019-06-01T15:42:40.483Z,39.00
2019-06-01T15:45:10.812Z,39.80
2019-06-01T15:47:41.074Z,41.20
2019-06-01T15:50:11.554Z,41.70
2019-06-01T15:52:41.810Z,41.90
2019-06-01T15:55:12.093Z,41.60
2019-06-01T15:57:42.338Z,41.70
2019-06-01T16:00:12.583Z,41.60
2019-06-01T16:02:42.830Z,42.30
2019-06-01T16:05:13.076Z,42.90
2019-06-01T16:07:43.341Z,43.30
2019-06-01T16:10:13.958Z,43.40
2019-06-01T16:12:44.484Z,42.60
2019-06-01T16:15:14.749Z,42.20
2019-06-01T16:17:45.035Z,42.30
2019-06-01T16:20:15.272Z,41.70
2019-06-01T16:22:45.559Z,42.00
2019-06-01T16:25:15.814Z,41.80
2019-06-01T16:27:46.155Z,41.80
2019-06-01T16:30:16.469Z,42.60
2019-06-01T16:32:47.095Z,42.70
2019-06-01T16:35:17.350Z,43.10
2019-06-01T16:37:47.641Z,43.10
2019-06-01T16:40:17.937Z,43.20
2019-06-01T16:42:48.211Z,43.10
2019-06-01T16:45:20.155Z,42.70
2019-06-01T16:47:50.409Z,42.40
2019-06-01T16:50:20.691Z,42.40
2019-06-01T16:52:50.960Z,42.20
2019-06-01T16:55:21.233Z,42.70
2019-06-01T16:57:51.495Z,43.30
2019-06-01T17:00:23.391Z,43.00
2019-06-01T17:02:53.662Z,42.10
2019-06-01T17:05:23.940Z,41.50
2019-06-01T17:07:54.184Z,41.20
2019-06-01T17:10:26.738Z,40.50
2019-06-01T17:12:56.859Z,40.60
2019-06-01T17:15:27.305Z,40.90
2019-06-01T17:18:02.687Z,41.20
2019-06-01T17:20:43.275Z,41.20
2019-06-01T17:23:32.725Z,41.30
2019-06-01T17:25:45.482Z,40.70
2019-06-01T17:28:15.765Z,40.90
2019-06-01T17:30:47.577Z,41.20
2019-06-01T17:33:17.823Z,41.90
2019-06-01T17:35:48.448Z,41.50
2019-06-01T17:38:18.700Z,40.90
2019-06-01T17:40:48.988Z,38.80
2019-06-01T17:43:19.733Z,37.00
2019-06-01T17:45:49.978Z,35.20
2019-06-01T17:48:26.441Z,33.30
2019-06-01T17:50:52.172Z,32.10
2019-06-01T17:53:22.461Z,31.40
2019-06-01T17:55:52.705Z,31.20
2019-06-01T17:58:23.001Z,31.30
2019-06-01T18:00:53.323Z,31.10
2019-06-01T18:03:23.595Z,31.40
2019-06-01T18:05:53.880Z,32.30
2019-06-01T18:08:24.152Z,33.20
2019-06-01T18:10:55.221Z,34.30
2019-06-01T18:13:25.583Z,35.20
2019-06-01T18:15:55.874Z,35.10
2019-06-01T18:18:26.121Z,35.00
2019-06-01T18:20:56.417Z,34.00
2019-06-01T18:23:26.698Z,32.20
2019-06-01T18:25:57.045Z,30.80
2019-06-01T18:28:27.336Z,29.70
2019-06-01T18:30:57.680Z,28.70
2019-06-01T18:33:27.963Z,27.80
2019-06-01T18:35:58.226Z,27.20
2019-06-01T18:38:28.482Z,26.60
2019-06-01T18:41:09.182Z,26.20
2019-06-01T18:43:30.722Z,25.80
2019-06-01T18:46:00.964Z,25.50
2019-06-01T18:48:32.022Z,25.20
2019-06-01T18:51:02.261Z,25.00
2019-06-01T18:53:32.513Z,24.80
2019-06-01T18:56:03.995Z,24.60
2019-06-01T18:58:34.457Z,24.40
2019-06-01T19:01:04.705Z,24.10
2019-06-01T19:03:34.983Z,23.90
2019-06-01T19:06:05.284Z,23.60
2019-06-01T19:08:35.797Z,23.30
2019-06-01T19:11:06.041Z,23.00
2019-06-01T19:13:36.800Z,22.80
2019-06-01T19:16:08.015Z,22.50
2019-06-01T19:18:38.443Z,22.30
2019-06-01T19:21:08.770Z,22.10
2019-06-01T19:23:39.061Z,21.90
2019-06-01T19:26:12.268Z,21.70
2019-06-01T19:28:41.345Z,21.50
2019-06-01T19:31:11.615Z,21.30
2019-06-01T19:33:41.876Z,21.10
2019-06-01T19:36:13.016Z,21.00
2019-06-01T19:38:43.417Z,20.80
2019-06-01T19:41:15.105Z,20.70
2019-06-01T19:43:45.831Z,20.50
2019-06-01T19:46:16.113Z,20.40
2019-06-01T19:48:46.422Z,20.20
2019-06-01T19:51:17.024Z,20.10
2019-06-01T19:53:47.301Z,19.90
2019-06-01T19:56:17.549Z,19.80
2019-06-01T19:58:48.372Z,19.60
2019-06-01T20:01:18.655Z,19.50
2019-06-01T20:03:48.931Z,19.40
2019-06-01T20:06:19.237Z,19.30
2019-06-01T20:08:49.478Z,19.30
2019-06-01T20:11:21.332Z,19.20
2019-06-01T20:13:51.855Z,19.10
2019-06-01T20:16:22.938Z,19.00
2019-06-01T20:18:53.300Z,18.90
2019-06-01T20:21:23.558Z,18.80
2019-06-01T20:23:53.839Z,18.80
2019-06-01T20:26:39.315Z,18.70
2019-06-01T20:28:56.040Z,18.60
2019-06-01T20:31:26.803Z,18.50
2019-06-01T20:33:57.065Z,18.40
2019-06-01T20:36:27.331Z,18.30
2019-06-01T20:38:57.602Z,18.20
2019-06-01T20:41:28.102Z,18.20
2019-06-01T20:43:58.387Z,18.10
2019-06-01T20:46:28.639Z,18.10
2019-06-01T20:48:59.153Z,18.10
2019-06-01T20:51:29.453Z,18.00
2019-06-01T20:53:59.786Z,18.00
2019-06-01T20:56:30.073Z,17.90
2019-06-01T20:59:00.328Z,17.90
2019-06-01T21:01:30.588Z,17.80
2019-06-01T21:04:00.866Z,17.80
2019-06-01T21:06:31.169Z,17.80
2019-06-01T21:09:01.415Z,17.70
2019-06-01T21:11:31.683Z,17.70
2019-06-01T21:14:01.970Z,17.70
2019-06-01T21:16:32.262Z,17.60
2019-06-01T21:19:02.512Z,17.60
2019-06-01T21:21:32.768Z,17.50
2019-06-01T21:24:03.066Z,17.50
2019-06-01T21:26:33.351Z,17.40
2019-06-01T21:29:03.613Z,17.40
2019-06-01T21:31:33.869Z,17.30
2019-06-01T21:34:04.136Z,17.30
2019-06-01T21:36:34.426Z,17.20
2019-06-01T21:39:07.832Z,17.10
2019-06-01T21:41:38.075Z,17.00
2019-06-01T21:44:08.370Z,17.00
2019-06-01T21:46:38.649Z,17.00
2019-06-01T21:49:08.906Z,17.00
2019-06-01T21:51:39.190Z,17.00
2019-06-01T21:54:09.457Z,17.10
2019-06-01T21:56:39.723Z,17.20
2019-06-01T21:59:10.001Z,17.30
2019-06-01T22:01:40.262Z,17.40
2019-06-01T22:04:10.530Z,17.50
2019-06-01T22:06:40.816Z,17.40
2019-06-01T22:09:11.074Z,17.40
2019-06-01T22:11:41.366Z,17.40
2019-06-01T22:14:11.622Z,17.40
2019-06-01T22:16:41.914Z,17.40
2019-06-01T22:19:12.664Z,17.50
2019-06-01T22:21:43.050Z,17.50
2019-06-01T22:24:13.350Z,17.50
2019-06-01T22:26:43.603Z,17.50
2019-06-01T22:29:14.054Z,17.50
2019-06-01T22:31:44.319Z,17.40
2019-06-01T22:34:14.612Z,17.60
2019-06-01T22:36:44.896Z,17.60
2019-06-01T22:39:15.727Z,17.60
2019-06-01T22:41:45.985Z,17.60
2019-06-01T22:44:16.301Z,17.50
2019-06-01T22:46:46.597Z,17.50
2019-06-01T22:49:16.880Z,17.50
2019-06-01T22:51:47.139Z,17.60
2019-06-01T22:54:17.433Z,17.60
2019-06-01T22:56:47.694Z,17.50
2019-06-01T22:59:17.958Z,17.40
2019-06-01T23:01:48.265Z,17.40
2019-06-01T23:04:18.538Z,17.40
2019-06-01T23:06:48.834Z,17.40
2019-06-01T23:09:19.397Z,17.30
2019-06-01T23:11:49.690Z,17.40
2019-06-01T23:14:21.226Z,17.30
2019-06-01T23:16:51.652Z,17.40
2019-06-01T23:19:21.919Z,17.30
2019-06-01T23:21:52.214Z,17.20
2019-06-01T23:24:22.491Z,17.10
2019-06-01T23:26:52.742Z,17.10
2019-06-01T23:29:24.049Z,17.00
2019-06-01T23:31:54.385Z,17.00
2019-06-01T23:34:24.991Z,16.90
2019-06-01T23:36:55.324Z,16.90
2019-06-01T23:39:26.629Z,16.80
2019-06-01T23:41:57.307Z,16.80
2019-06-01T23:44:30.731Z,16.70
2019-06-01T23:46:59.597Z,16.70
2019-06-01T23:49:29.910Z,16.70
2019-06-01T23:52:00.194Z,16.70
2019-06-01T23:54:32.305Z,16.60
2019-06-01T23:57:02.456Z,16.50
2019-06-01T23:59:32.720Z,16.60
